Riverside, CA

11:58 AM PST on December 28, 2014 (GMT -0800)
Riverside Municipal | Change Station
CLOSE
Current Station
Airport
Location: Riverside,
Elevation: 817 ft
Nearby Weather Stations

Elev 817 ft 33.95 °N, 117.45 °W | Updated 1 hour ago

Mostly Cloudy
Mostly Cloudy
54 °F
Feels Like 54 °F
N
0
Wind Variable Wind from North

Today
High -- | Low -- °F
--% Chance of Precip.
Yesterday
High -- | Low -- °F
Precip. -- in
6:54 AM 4:48 PM
Waxing Crescent, 51% visible
Pressure 30.24 in
Visibility 10.0 miles
Clouds Mostly Cloudy 20000 ft
Dew Point 24 °F
Humidity 31%
Rainfall 0.00 in
Snow Depth Not available.
UV 2 out of 12
Pollen 7.30 out of 12
Air Quality Not available.
Flu Activity Not available.
METAR KRAL 281853Z 00000KT 10SM BKN200 12/M04 A3026 RMK AO2 SLP239 T01221044

More Conditions Fewer Conditions

Pressure 30.24 in
Visibility 10.0 miles
Clouds Mostly Cloudy 20000 ft
Dew Point 24 °F
Humidity 31%
Rainfall 0.00 in
Snow Depth Not available.
UV 2 out of 12
Pollen 7.30 out of 12
Air Quality Not available.
Flu Activity Not available.
METAR KRAL 281853Z 00000KT 10SM BKN200 12/M04 A3026 RMK AO2 SLP239 T01221044

More Conditions Fewer Conditions

10-Day Weather Forecast

Almanac

Astronomy

Dec. 28, 2014 Rise Set
Actual Time
Civil Twilight
Nautical Twilight
Astronomical Twilight
Moon
Length of Visible Light
Length of Day
Tomorrow will be .
, % of the Moon is Illuminated

Today's Extremes

State Highs State Lows

Community

WunderPhotos

Upload Photos

1,781,402 photos uploaded!

WunderBlogs® & News

Nearby

Air Quality

  Air Quality AQ Index Pollutant
Not available.

Snow Depth

Station Depth Elevation

Earthquake Activity

City Distance Mag. Time & Date
Minimum magnitude displayed is 2.5.

Coastal Water Temperatures

Place Temperature

Nearby Weather Stations